Time;durP1;ratioP1;P1;durP2;ratioP2;P2;SDS_P1;SDS_P2;PMS_P1;PMS_P2;Temp;Humidity;BMP_temperature;BMP_pressure;BME280_temperature;BME280_humidity;BME280_pressure;Samples;Min_cycle;Max_cycle;Signal;HPM_P1;HPM_P2
2023/06/06 00:01:36;;;;;;;12.60;6.50;;;16.00;99.90;;;;;;5053967;28;20224;-69
2023/06/06 00:04:03;;;;;;;12.20;6.80;;;16.10;99.90;;;;;;5054190;28;20544;-67
2023/06/06 00:06:33;;;;;;;14.50;6.23;;;16.10;99.90;;;;;;5052723;28;20220;-67
2023/06/06 00:09:02;;;;;;;4.87;4.10;;;16.20;99.90;;;;;;5034902;28;20274;-68
2023/06/06 00:11:30;;;;;;;6.53;4.40;;;16.30;99.90;;;;;;5034039;28;20181;-68
2023/06/06 00:13:58;;;;;;;9.80;4.43;;;16.40;99.90;;;;;;5050664;28;20270;-69
2023/06/06 00:16:29;;;;;;;8.13;4.20;;;16.60;99.90;;;;;;5048724;28;20331;-69
2023/06/06 00:18:56;;;;;;;7.63;4.10;;;16.80;99.90;;;;;;5053576;28;20267;-70
2023/06/06 00:21:24;;;;;;;7.47;4.30;;;17.00;99.90;;;;;;5053839;28;20174;-68
2023/06/06 00:23:52;;;;;;;11.03;4.30;;;17.20;99.90;;;;;;5048666;28;20177;-69
2023/06/06 00:26:20;;;;;;;8.40;3.83;;;17.40;99.90;;;;;;5053531;28;20211;-68
2023/06/06 00:28:47;;;;;;;5.93;3.90;;;17.40;99.90;;;;;;5053272;28;20186;-69
2023/06/06 00:31:14;;;;;;;7.50;4.00;;;17.80;99.90;;;;;;5061645;28;20321;-69
2023/06/06 00:37:04;;;;;;;5.93;3.00;;;18.10;99.90;;;;;;5050915;28;20191;-69
2023/06/06 00:39:31;;;;;;;5.93;2.57;;;18.40;99.90;;;;;;5052603;28;20235;-70
2023/06/06 00:41:59;;;;;;;6.10;2.87;;;18.70;99.90;;;;;;5052645;28;20196;-70
2023/06/06 00:44:26;;;;;;;7.97;3.30;;;18.60;99.90;;;;;;5053165;28;20180;-69
2023/06/06 00:46:54;;;;;;;5.60;1.87;;;18.50;99.90;;;;;;5053173;28;20226;-69
2023/06/06 00:49:21;;;;;;;3.63;2.40;;;18.60;99.90;;;;;;5053051;28;20183;-69
2023/06/06 00:51:49;;;;;;;4.40;2.77;;;18.60;99.90;;;;;;5053847;28;20190;-69
2023/06/06 00:54:22;;;;;;;5.20;2.80;;;18.50;99.90;;;;;;5053300;28;20676;-69
2023/06/06 00:56:51;;;;;;;6.87;2.37;;;18.30;99.90;;;;;;5052280;28;20183;-69
2023/06/06 01:02:43;;;;;;;6.87;3.03;;;18.40;99.90;;;;;;5052093;28;20196;-70
2023/06/06 01:05:11;;;;;;;6.37;3.20;;;18.10;99.90;;;;;;5052671;28;20186;-70
2023/06/06 01:07:38;;;;;;;5.90;2.73;;;18.10;99.90;;;;;;5052884;28;20220;-69
2023/06/06 01:10:09;;;;;;;7.87;3.03;;;18.10;99.90;;;;;;5034269;28;20246;-71
2023/06/06 01:12:48;;;;;;;4.67;3.10;;;18.50;99.90;;;;;;5043839;28;20648;-70
2023/06/06 01:15:42;;;;;;;6.20;2.43;;;19.00;99.90;;;;;;5052239;28;20251;-70
2023/06/06 01:18:12;;;;;;;5.60;2.43;;;19.10;99.90;;;;;;5052211;28;20241;-70
2023/06/06 01:20:43;;;;;;;7.00;2.67;;;19.10;99.90;;;;;;5052312;28;20187;-70
2023/06/06 01:23:12;;;;;;;5.73;2.23;;;19.10;99.90;;;;;;5051722;28;20530;-69
2023/06/06 01:25:46;;;;;;;5.07;2.60;;;19.10;99.90;;;;;;5052638;28;20260;-69
2023/06/06 01:28:15;;;;;;;7.07;2.70;;;19.20;99.90;;;;;;5034784;28;20583;-70
2023/06/06 01:30:44;;;;;;;6.57;3.20;;;19.40;99.90;;;;;;5052599;28;20172;-70
2023/06/06 01:33:12;;;;;;;10.03;3.60;;;19.80;99.90;;;;;;5052141;28;20275;-68
2023/06/06 01:35:44;;;;;;;7.00;3.00;;;20.10;99.90;;;;;;5052273;28;20177;-69
2023/06/06 01:38:24;;;;;;;7.27;2.80;;;20.10;99.90;;;;;;5052316;28;20634;-69
2023/06/06 01:40:55;;;;;;;7.50;3.00;;;19.90;99.90;;;;;;5052110;28;20239;-68
2023/06/06 01:43:25;;;;;;;4.47;3.00;;;20.00;99.90;;;;;;5034439;28;20180;-71
2023/06/06 01:45:54;;;;;;;5.20;2.50;;;19.90;99.90;;;;;;5051994;28;20686;-70
2023/06/06 01:48:23;;;;;;;6.43;2.80;;;19.70;99.90;;;;;;5051021;28;20227;-71
2023/06/06 01:50:51;;;;;;;5.60;2.80;;;19.60;99.90;;;;;;5052042;28;20270;-70
2023/06/06 01:53:19;;;;;;;5.97;2.30;;;19.90;99.90;;;;;;5051898;28;20191;-71
2023/06/06 01:55:48;;;;;;;7.43;2.27;;;20.20;99.90;;;;;;5052065;28;20177;-70
2023/06/06 01:58:17;;;;;;;6.87;2.87;;;20.50;99.90;;;;;;5052212;28;20594;-69
2023/06/06 02:00:44;;;;;;;9.43;2.40;;;20.80;99.90;;;;;;5051957;28;20187;-70
2023/06/06 02:03:12;;;;;;;9.50;3.27;;;20.90;99.90;;;;;;5051457;28;20176;-70
2023/06/06 02:05:39;;;;;;;5.13;2.43;;;20.80;99.90;;;;;;5051064;28;20211;-71
2023/06/06 02:08:07;;;;;;;7.87;2.67;;;20.70;99.90;;;;;;5030104;28;20696;-70
2023/06/06 02:10:34;;;;;;;9.20;2.20;;;20.80;99.90;;;;;;5043071;28;20254;-70
2023/06/06 02:13:02;;;;;;;6.80;2.50;;;21.00;99.90;;;;;;5051483;28;20705;-70
2023/06/06 02:15:30;;;;;;;3.97;2.03;;;21.00;99.90;;;;;;5051371;28;20188;-70
2023/06/06 02:17:57;;;;;;;4.97;2.10;;;20.80;99.90;;;;;;5051540;28;20196;-71
2023/06/06 02:20:25;;;;;;;5.87;2.70;;;20.40;99.90;;;;;;5050790;28;20181;-70
2023/06/06 02:22:52;;;;;;;7.53;2.93;;;20.20;99.90;;;;;;5051137;28;20256;-71
2023/06/06 02:25:22;;;;;;;4.90;2.33;;;20.10;99.90;;;;;;5051095;28;20256;-70
2023/06/06 02:27:50;;;;;;;7.13;3.10;;;20.20;99.90;;;;;;5051413;28;20329;-71
2023/06/06 02:30:17;;;;;;;9.67;2.57;;;20.20;99.90;;;;;;5051546;28;20710;-71
2023/06/06 02:32:45;;;;;;;6.60;2.57;;;20.20;99.90;;;;;;5051277;28;20173;-70
2023/06/06 02:35:12;;;;;;;4.87;2.37;;;20.10;99.90;;;;;;5050702;28;20266;-72
2023/06/06 02:37:40;;;;;;;7.57;2.20;;;20.00;99.90;;;;;;5051206;28;20183;-70
2023/06/06 02:40:11;;;;;;;5.77;2.87;;;20.00;99.90;;;;;;5050887;28;20239;-70
2023/06/06 02:42:39;;;;;;;5.97;2.37;;;19.90;99.90;;;;;;5050948;28;20591;-70
2023/06/06 02:45:11;;;;;;;6.63;2.40;;;19.80;99.90;;;;;;5050843;28;20687;-70
2023/06/06 02:47:38;;;;;;;5.87;2.80;;;19.60;99.90;;;;;;5050797;28;20328;-69
2023/06/06 02:50:07;;;;;;;3.57;2.20;;;19.60;99.90;;;;;;5050749;28;20539;-69
2023/06/06 02:52:35;;;;;;;7.53;2.70;;;19.40;99.90;;;;;;5050898;28;20187;-69
2023/06/06 02:55:03;;;;;;;7.37;2.60;;;19.20;99.90;;;;;;5050731;28;20199;-69
2023/06/06 02:57:30;;;;;;;7.33;2.90;;;19.20;99.90;;;;;;5050719;28;20671;-70
2023/06/06 03:00:02;;;;;;;9.50;2.90;;;19.10;99.90;;;;;;5050991;28;20318;-70
2023/06/06 03:02:29;;;;;;;4.70;2.90;;;19.10;99.90;;;;;;5053658;28;20199;-70
2023/06/06 03:04:56;;;;;;;5.90;3.10;;;19.10;99.90;;;;;;5051280;28;20266;-69
2023/06/06 03:07:24;;;;;;;9.90;2.77;;;19.20;99.90;;;;;;5050625;28;20285;-70
2023/06/06 03:09:51;;;;;;;6.43;3.10;;;19.40;99.90;;;;;;5024295;28;20612;-70
2023/06/06 03:12:18;;;;;;;5.47;2.57;;;19.60;99.90;;;;;;5040418;28;20192;-70
2023/06/06 03:14:46;;;;;;;7.77;3.43;;;19.80;99.90;;;;;;5050558;28;20188;-71
2023/06/06 03:17:14;;;;;;;7.07;3.30;;;19.90;99.90;;;;;;5050640;28;20188;-69
2023/06/06 03:19:42;;;;;;;10.70;3.10;;;20.00;99.90;;;;;;5052544;28;20238;-69
2023/06/06 03:22:09;;;;;;;12.50;3.40;;;20.10;99.90;;;;;;5054064;28;20233;-71
2023/06/06 03:24:37;;;;;;;7.13;2.60;;;20.20;99.90;;;;;;5054789;28;20188;-70
2023/06/06 03:27:05;;;;;;;7.67;3.30;;;20.20;99.90;;;;;;5052585;28;20274;-69
2023/06/06 03:29:32;;;;;;;6.27;2.80;;;20.20;99.90;;;;;;5036554;28;20663;-70
2023/06/06 03:32:01;;;;;;;5.33;2.53;;;20.40;99.90;;;;;;5054405;28;20543;-71
2023/06/06 03:34:29;;;;;;;5.20;3.40;;;20.40;99.90;;;;;;5054657;28;20556;-71
2023/06/06 03:36:56;;;;;;;4.60;2.73;;;20.20;99.90;;;;;;5054217;28;20185;-70
2023/06/06 03:39:24;;;;;;;7.20;2.60;;;20.20;99.90;;;;;;5054771;28;20283;-71
2023/06/06 03:41:51;;;;;;;6.00;2.67;;;20.30;99.90;;;;;;5036276;28;20485;-70
2023/06/06 03:44:18;;;;;;;7.33;2.50;;;20.50;99.90;;;;;;5030522;28;20184;-70
2023/06/06 03:46:45;;;;;;;6.60;2.43;;;20.50;99.90;;;;;;5034595;28;20298;-70
2023/06/06 03:49:13;;;;;;;7.30;2.57;;;20.70;99.90;;;;;;5034673;28;20207;-70
2023/06/06 03:51:40;;;;;;;8.23;2.83;;;20.60;99.90;;;;;;5044818;28;20185;-69
2023/06/06 03:54:07;;;;;;;8.40;3.17;;;20.70;99.90;;;;;;5054117;28;20192;-69
2023/06/06 03:56:36;;;;;;;7.77;2.90;;;20.80;99.90;;;;;;5054232;28;20185;-70
2023/06/06 03:59:05;;;;;;;6.57;2.57;;;21.00;99.90;;;;;;5054189;28;20181;-69
2023/06/06 04:01:33;;;;;;;4.13;2.40;;;21.10;99.90;;;;;;5054393;28;20180;-70
2023/06/06 04:04:00;;;;;;;3.83;2.83;;;21.60;99.90;;;;;;5054172;28;20557;-69
2023/06/06 04:06:28;;;;;;;2.97;1.73;;;22.40;99.90;;;;;;5054301;28;20254;-70
2023/06/06 04:08:56;;;;;;;8.00;2.40;;;22.90;99.90;;;;;;5054077;28;20594;-69
2023/06/06 04:11:23;;;;;;;6.57;2.20;;;23.20;99.90;;;;;;5054207;28;20181;-69
2023/06/06 04:13:51;;;;;;;3.87;2.00;;;23.40;99.90;;;;;;5054123;28;20219;-69
2023/06/06 04:16:18;;;;;;;3.73;1.77;;;23.40;99.90;;;;;;5053937;28;20180;-70
2023/06/06 04:18:47;;;;;;;4.00;0.70;;;23.10;99.90;;;;;;5053961;28;20180;-69
2023/06/06 04:21:14;;;;;;;2.43;0.87;;;22.40;99.90;;;;;;5036105;28;20525;-69
2023/06/06 04:23:42;;;;;;;3.00;0.67;;;22.20;99.90;;;;;;5053945;28;20172;-69
2023/06/06 04:26:12;;;;;;;1.37;0.60;;;21.70;99.90;;;;;;5053939;28;20550;-69
2023/06/06 04:28:40;;;;;;;1.73;0.57;;;21.40;99.90;;;;;;5036180;28;20385;-70
2023/06/06 04:31:07;;;;;;;1.17;0.50;;;21.40;99.90;;;;;;5052435;28;20209;-69
2023/06/06 04:33:35;;;;;;;1.33;0.70;;;21.30;99.90;;;;;;5053845;28;20645;-69
2023/06/06 04:36:02;;;;;;;0.80;0.60;;;20.80;99.90;;;;;;5052957;28;20650;-69
2023/06/06 04:38:30;;;;;;;3.00;0.53;;;20.60;99.90;;;;;;5053366;28;20212;-68
2023/06/06 04:41:01;;;;;;;2.60;0.70;;;20.30;99.90;;;;;;5053743;28;20911;-69
2023/06/06 04:43:29;;;;;;;1.97;0.70;;;20.20;99.90;;;;;;5053128;28;20203;-67
2023/06/06 04:46:00;;;;;;;1.13;0.70;;;20.00;99.90;;;;;;5053359;28;20224;-68
2023/06/06 04:48:28;;;;;;;1.17;0.70;;;19.80;99.90;;;;;;5053406;28;20185;-67
2023/06/06 04:50:56;;;;;;;0.97;0.80;;;19.60;99.90;;;;;;5053506;28;20709;-70
2023/06/06 04:53:23;;;;;;;1.80;0.70;;;19.50;99.90;;;;;;5052834;28;20929;-68
2023/06/06 04:55:52;;;;;;;1.90;0.67;;;19.40;99.90;;;;;;5053335;28;20304;-69
2023/06/06 04:58:20;;;;;;;1.73;0.60;;;19.20;99.90;;;;;;5053289;28;20246;-68
2023/06/06 05:00:49;;;;;;;2.10;0.80;;;19.10;99.90;;;;;;5053211;28;20184;-68
2023/06/06 05:03:22;;;;;;;1.40;0.80;;;19.20;99.90;;;;;;5052776;28;20181;-68
2023/06/06 05:05:51;;;;;;;1.47;0.77;;;19.20;99.90;;;;;;5053203;28;20177;-69
2023/06/06 05:08:19;;;;;;;2.67;0.60;;;19.20;99.90;;;;;;5052980;28;20238;-69
2023/06/06 05:10:47;;;;;;;2.07;0.73;;;19.10;99.90;;;;;;5053031;28;20700;-70
2023/06/06 05:13:18;;;;;;;3.30;0.70;;;19.10;99.90;;;;;;5052761;28;20275;-68
2023/06/06 05:15:45;;;;;;;2.60;1.00;;;19.20;99.90;;;;;;5052823;28;20185;-69
2023/06/06 05:18:12;;;;;;;1.30;0.80;;;19.30;99.90;;;;;;5052957;28;20229;-70
2023/06/06 05:20:40;;;;;;;1.90;0.67;;;19.40;99.90;;;;;;5052577;28;20174;-69
2023/06/06 05:23:07;;;;;;;2.57;0.93;;;19.50;99.90;;;;;;5052601;28;20188;-70
2023/06/06 05:25:36;;;;;;;3.50;0.90;;;19.90;99.90;;;;;;5052880;28;20184;-70
2023/06/06 05:28:03;;;;;;;4.07;0.67;;;20.20;99.90;;;;;;5052586;28;20301;-71
2023/06/06 05:30:30;;;;;;;2.13;0.70;;;20.20;99.90;;;;;;5052608;28;20651;-70
2023/06/06 05:32:58;;;;;;;0.80;0.80;;;20.10;99.90;;;;;;5052524;28;20184;-70
2023/06/06 05:35:25;;;;;;;1.47;0.90;;;19.80;99.90;;;;;;5034619;28;20180;-70
2023/06/06 05:37:52;;;;;;;2.07;0.90;;;19.70;99.90;;;;;;5052285;28;20177;-70
2023/06/06 05:40:20;;;;;;;1.30;0.80;;;19.40;99.90;;;;;;5052351;28;20174;-69
2023/06/06 05:42:47;;;;;;;2.60;0.90;;;19.40;99.90;;;;;;5051387;28;20180;-69
2023/06/06 05:45:15;;;;;;;2.57;0.90;;;19.30;99.90;;;;;;5051875;28;20277;-69
2023/06/06 05:47:43;;;;;;;2.77;1.00;;;19.10;99.90;;;;;;5052296;28;20244;-70
2023/06/06 05:50:11;;;;;;;1.90;0.80;;;19.00;99.90;;;;;;5052248;28;20226;-69
2023/06/06 05:52:38;;;;;;;1.10;0.80;;;19.00;99.90;;;;;;5051797;28;20180;-69
2023/06/06 05:55:07;;;;;;;2.57;1.10;;;19.00;99.90;;;;;;5052138;28;20182;-69
2023/06/06 05:57:35;;;;;;;1.40;0.80;;;19.10;99.90;;;;;;5052126;28;20181;-69
2023/06/06 06:00:07;;;;;;;2.60;0.80;;;19.10;99.90;;;;;;5052193;28;20181;-69
2023/06/06 06:02:34;;;;;;;2.73;1.00;;;19.10;99.90;;;;;;5051021;28;20262;-69
2023/06/06 06:05:02;;;;;;;2.47;0.90;;;18.90;99.90;;;;;;5051861;28;20195;-70
2023/06/06 06:07:29;;;;;;;6.80;1.10;;;18.90;99.90;;;;;;5051713;28;20582;-69
2023/06/06 06:09:57;;;;;;;2.57;1.17;;;18.90;99.90;;;;;;5051639;28;20560;-68
2023/06/06 06:12:24;;;;;;;8.27;1.30;;;19.00;99.90;;;;;;5051637;28;20192;-69
2023/06/06 06:14:51;;;;;;;4.97;1.30;;;18.90;99.90;;;;;;5051473;28;20532;-70
2023/06/06 06:17:20;;;;;;;2.90;0.97;;;18.80;99.90;;;;;;5051584;28;20226;-69
2023/06/06 06:19:48;;;;;;;2.07;0.90;;;18.80;99.90;;;;;;5051635;28;20173;-69
2023/06/06 06:22:15;;;;;;;5.20;1.10;;;18.80;99.90;;;;;;5051163;28;20529;-70
2023/06/06 06:24:42;;;;;;;1.60;0.90;;;18.80;99.90;;;;;;5051616;28;20669;-70
2023/06/06 06:27:10;;;;;;;2.40;1.07;;;18.80;99.90;;;;;;5051752;28;20665;-70
2023/06/06 06:29:37;;;;;;;2.77;1.03;;;18.70;99.90;;;;;;5033856;28;20177;-70
2023/06/06 06:32:05;;;;;;;5.30;1.37;;;18.70;99.90;;;;;;5051295;28;20178;-70
2023/06/06 06:34:33;;;;;;;3.03;1.20;;;18.60;99.90;;;;;;5051618;28;20180;-69
2023/06/06 06:37:01;;;;;;;4.60;1.40;;;18.60;99.90;;;;;;5051522;28;20181;-69
2023/06/06 06:39:28;;;;;;;4.07;1.20;;;18.60;99.90;;;;;;5051644;28;20668;-70
2023/06/06 06:41:55;;;;;;;6.70;1.00;;;18.60;99.90;;;;;;5051346;28;20212;-70
2023/06/06 06:44:23;;;;;;;1.73;1.03;;;18.60;99.90;;;;;;5051313;28;20194;-69
2023/06/06 06:46:50;;;;;;;6.00;1.10;;;18.60;99.90;;;;;;5051036;28;20285;-69
2023/06/06 06:49:18;;;;;;;3.13;1.00;;;18.50;99.90;;;;;;5051215;28;20188;-70
2023/06/06 06:51:47;;;;;;;2.10;0.97;;;18.50;99.90;;;;;;5051589;28;20578;-70
2023/06/06 06:54:21;;;;;;;3.27;1.17;;;18.40;99.90;;;;;;5050420;28;20208;-69
2023/06/06 06:56:51;;;;;;;2.63;1.07;;;18.30;99.90;;;;;;5051367;28;20732;-69
2023/06/06 06:59:20;;;;;;;6.23;1.43;;;18.30;99.90;;;;;;5051549;28;20184;-69
2023/06/06 07:01:49;;;;;;;2.33;1.20;;;18.20;99.90;;;;;;5051694;28;20526;-67
2023/06/06 07:04:19;;;;;;;11.10;1.60;;;18.20;99.90;;;;;;5033654;28;20177;-70
2023/06/06 07:06:47;;;;;;;2.77;1.10;;;18.30;99.90;;;;;;5051785;28;20212;-70
2023/06/06 07:09:15;;;;;;;3.47;1.20;;;18.30;99.90;;;;;;5052408;28;20181;-69
2023/06/06 07:11:42;;;;;;;2.37;1.40;;;18.40;99.90;;;;;;5066434;28;20189;-69
2023/06/06 07:14:12;;;;;;;5.20;1.10;;;18.30;99.90;;;;;;5068420;28;20191;-69
2023/06/06 07:16:39;;;;;;;2.93;1.30;;;18.40;99.90;;;;;;5055999;28;20196;-71
2023/06/06 07:19:07;;;;;;;5.77;1.10;;;18.30;99.90;;;;;;5051450;28;20223;-69
2023/06/06 07:21:34;;;;;;;2.87;1.47;;;18.20;99.90;;;;;;5051506;28;20184;-71
2023/06/06 07:24:02;;;;;;;3.43;1.93;;;18.20;99.90;;;;;;5051189;28;20176;-69
2023/06/06 07:26:29;;;;;;;3.63;1.60;;;18.20;99.90;;;;;;5033102;28;20204;-70
2023/06/06 07:28:57;;;;;;;1.80;1.30;;;18.20;99.90;;;;;;5050799;28;20191;-69
2023/06/06 07:31:25;;;;;;;3.90;1.33;;;18.10;99.90;;;;;;5051144;28;20177;-69
2023/06/06 07:33:53;;;;;;;3.60;1.50;;;18.00;99.90;;;;;;5051191;28;20971;-69
2023/06/06 07:36:20;;;;;;;4.67;1.63;;;17.90;99.90;;;;;;5050883;28;20231;-69
2023/06/06 07:38:47;;;;;;;3.37;1.40;;;17.90;99.90;;;;;;5051113;28;20522;-68
2023/06/06 07:41:15;;;;;;;4.03;1.27;;;17.80;99.90;;;;;;5050803;28;20173;-68
2023/06/06 07:43:42;;;;;;;4.70;1.87;;;17.80;99.90;;;;;;5050975;28;20191;-69
2023/06/06 07:46:10;;;;;;;9.40;1.87;;;17.60;99.90;;;;;;5050682;28;20237;-69
2023/06/06 07:48:37;;;;;;;3.60;1.40;;;17.60;99.90;;;;;;5051161;28;20713;-68
2023/06/06 07:51:06;;;;;;;4.83;1.87;;;17.40;99.90;;;;;;5052193;28;20180;-69
2023/06/06 07:53:33;;;;;;;3.00;1.60;;;17.40;99.90;;;;;;5034072;28;20191;-69
2023/06/06 07:56:00;;;;;;;4.07;1.57;;;17.20;99.90;;;;;;5070768;28;20191;-70
2023/06/06 07:58:54;;;;;;;5.60;1.60;;;17.00;99.90;;;;;;5070830;28;20187;-69
2023/06/06 08:01:23;;;;;;;6.33;1.63;;;17.00;99.90;;;;;;5071317;28;20177;-69
2023/06/06 08:03:52;;;;;;;6.27;1.50;;;16.80;99.90;;;;;;5070770;28;20183;-70
2023/06/06 08:06:27;;;;;;;6.00;1.77;;;16.70;99.90;;;;;;5073261;28;20176;-69
2023/06/06 08:08:55;;;;;;;7.33;1.80;;;16.50;99.90;;;;;;5074516;28;20187;-69
2023/06/06 08:11:23;;;;;;;8.03;1.83;;;16.30;99.90;;;;;;5074559;28;20172;-69
2023/06/06 08:13:50;;;;;;;5.90;2.30;;;16.20;99.90;;;;;;5074203;28;20249;-69
2023/06/06 08:16:17;;;;;;;2.77;1.80;;;16.00;99.90;;;;;;5072082;28;20241;-69
2023/06/06 08:18:45;;;;;;;7.07;1.93;;;15.90;99.90;;;;;;5054146;28;20179;-68
2023/06/06 08:21:12;;;;;;;4.47;2.00;;;15.80;99.90;;;;;;5054635;28;20189;-69
2023/06/06 08:23:39;;;;;;;3.77;1.67;;;15.70;99.90;;;;;;5055364;28;20192;-69
2023/06/06 08:26:07;;;;;;;4.77;1.90;;;15.70;99.90;;;;;;5055168;28;20172;-69
2023/06/06 08:28:34;;;;;;;9.77;2.80;;;15.60;99.90;;;;;;5055027;28;20235;-69
2023/06/06 08:31:02;;;;;;;3.70;1.50;;;15.50;99.90;;;;;;5055194;28;20168;-69
2023/06/06 08:33:30;;;;;;;5.00;2.03;;;15.40;99.90;;;;;;5055108;28;20180;-70
2023/06/06 08:35:57;;;;;;;2.30;1.50;;;15.30;99.90;;;;;;5055137;28;20184;-69
2023/06/06 08:38:25;;;;;;;5.30;1.77;;;15.30;99.90;;;;;;5055241;28;20211;-69
2023/06/06 08:40:56;;;;;;;3.03;1.90;;;15.30;99.90;;;;;;5037108;28;20271;-69
2023/06/06 08:43:27;;;;;;;6.07;1.90;;;15.30;99.90;;;;;;5055289;28;20168;-69
2023/06/06 08:45:57;;;;;;;4.47;1.60;;;15.30;99.90;;;;;;5054756;28;20220;-69
2023/06/06 08:48:28;;;;;;;4.63;2.20;;;15.30;99.90;;;;;;5053714;28;20230;-69
2023/06/06 08:51:01;;;;;;;3.40;1.90;;;15.30;99.90;;;;;;5054168;28;20181;-69
2023/06/06 08:53:30;;;;;;;5.40;1.93;;;15.20;99.90;;;;;;5054331;28;20173;-68
2023/06/06 08:55:57;;;;;;;5.60;1.57;;;15.00;99.90;;;;;;5054273;28;20589;-68
2023/06/06 08:58:26;;;;;;;3.43;1.50;;;15.00;99.90;;;;;;5054387;28;20169;-69
2023/06/06 09:00:56;;;;;;;4.57;1.77;;;15.00;99.90;;;;;;5054194;28;20227;-70
2023/06/06 09:03:25;;;;;;;5.17;1.80;;;14.90;99.90;;;;;;5056863;28;20181;-69
2023/06/06 09:05:53;;;;;;;6.67;2.00;;;14.80;99.90;;;;;;5073189;28;20197;-68
2023/06/06 09:08:21;;;;;;;6.73;1.93;;;14.80;99.90;;;;;;5074203;28;20255;-68
2023/06/06 09:10:48;;;;;;;1.97;1.70;;;14.70;99.90;;;;;;5073722;28;20186;-68
2023/06/06 09:13:15;;;;;;;7.10;2.50;;;14.70;99.90;;;;;;5074048;28;20180;-69
2023/06/06 09:15:45;;;;;;;7.17;2.87;;;14.70;99.90;;;;;;5073919;28;20267;-69
2023/06/06 09:18:14;;;;;;;5.37;2.73;;;14.70;99.90;;;;;;5072334;28;20176;-68
2023/06/06 09:20:42;;;;;;;6.17;3.50;;;14.70;99.90;;;;;;5052092;28;20272;-68
2023/06/06 09:23:14;;;;;;;10.07;3.80;;;14.70;99.90;;;;;;5054095;28;20610;-68
2023/06/06 09:25:45;;;;;;;5.93;3.60;;;14.60;99.90;;;;;;5053790;28;20546;-69
2023/06/06 09:28:13;;;;;;;6.97;3.20;;;14.50;99.90;;;;;;5053403;28;20258;-69
2023/06/06 09:30:41;;;;;;;6.10;3.70;;;14.40;99.90;;;;;;5053873;28;20545;-69
2023/06/06 09:33:08;;;;;;;7.63;3.77;;;14.40;99.90;;;;;;5053353;28;20172;-69
2023/06/06 09:35:42;;;;;;;10.63;4.67;;;14.30;99.90;;;;;;5053374;28;20649;-69
2023/06/06 09:38:17;;;;;;;13.30;4.77;;;14.20;99.90;;;;;;5035549;28;20272;-69
2023/06/06 09:40:58;;;;;;;11.70;4.87;;;14.20;99.90;;;;;;5053343;28;20527;-69
2023/06/06 09:43:27;;;;;;;11.53;4.73;;;14.20;99.90;;;;;;5052986;28;20251;-68
2023/06/06 09:46:04;;;;;;;12.30;4.53;;;14.10;99.90;;;;;;5053130;28;20570;-68
2023/06/06 09:48:32;;;;;;;11.10;5.13;;;14.00;99.90;;;;;;5053499;28;20787;-68
2023/06/06 09:51:00;;;;;;;10.67;3.70;;;13.90;99.90;;;;;;5053309;28;20576;-69
2023/06/06 09:53:31;;;;;;;10.03;4.50;;;13.90;99.90;;;;;;5052952;28;20180;-68
2023/06/06 09:56:04;;;;;;;8.43;3.83;;;13.90;99.90;;;;;;5053179;28;20178;-69
2023/06/06 09:58:36;;;;;;;7.40;3.63;;;13.90;99.90;;;;;;5034801;28;20191;-67
2023/06/06 10:01:06;;;;;;;11.50;4.13;;;13.80;99.90;;;;;;5052618;28;20177;-68
2023/06/06 10:03:37;;;;;;;8.07;3.87;;;13.70;99.90;;;;;;5053012;28;20587;-68
2023/06/06 10:06:06;;;;;;;8.83;3.30;;;13.70;99.90;;;;;;5052724;28;20756;-68
2023/06/06 10:08:38;;;;;;;6.07;3.47;;;13.60;99.90;;;;;;5052318;28;20589;-68
2023/06/06 10:11:08;;;;;;;5.53;3.97;;;13.60;99.90;;;;;;5053165;28;20182;-69
2023/06/06 10:13:36;;;;;;;6.93;3.87;;;13.50;99.90;;;;;;5053007;28;20634;-68
2023/06/06 10:16:06;;;;;;;8.87;3.93;;;13.50;99.90;;;;;;5052545;28;20323;-68
2023/06/06 10:18:41;;;;;;;8.17;4.53;;;13.50;99.90;;;;;;5052974;28;20226;-68
2023/06/06 10:21:15;;;;;;;10.53;4.30;;;13.50;99.90;;;;;;5052742;28;20229;-68
2023/06/06 10:23:44;;;;;;;6.60;4.40;;;13.40;99.90;;;;;;5067573;28;20233;-68
2023/06/06 10:26:28;;;;;;;11.05;4.60;;;13.40;99.90;;;;;;5072557;28;20189;-69
2023/06/06 10:29:35;;;;;;;10.17;4.80;;;13.50;99.90;;;;;;5072499;28;20523;-69
2023/06/06 10:32:15;;;;;;;10.50;4.97;;;13.40;99.90;;;;;;5062979;28;20186;-68
2023/06/06 10:34:47;;;;;;;7.13;4.23;;;13.30;99.90;;;;;;5070408;28;20263;-68
2023/06/06 10:37:25;;;;;;;6.60;4.40;;;13.20;99.90;;;;;;5068206;28;20545;-68
2023/06/06 10:40:09;;;;;;;11.13;4.70;;;13.10;99.90;;;;;;5049525;28;20176;-69
2023/06/06 10:42:46;;;;;;;9.77;4.40;;;13.10;99.90;;;;;;5069953;28;20286;-69
2023/06/06 10:45:33;;;;;;;11.63;4.47;;;13.10;99.90;;;;;;5072193;28;20219;-68
2023/06/06 10:48:02;;;;;;;11.83;5.00;;;13.10;99.90;;;;;;5071727;28;20726;-69
2023/06/06 10:50:30;;;;;;;10.10;5.50;;;13.10;99.90;;;;;;5071982;28;20571;-68
2023/06/06 10:53:09;;;;;;;8.37;4.80;;;13.00;99.90;;;;;;5054295;28;20277;-68
2023/06/06 10:55:46;;;;;;;9.03;5.73;;;13.00;99.90;;;;;;5072185;28;20265;-69
2023/06/06 10:58:32;;;;;;;12.70;5.77;;;13.00;99.90;;;;;;5072200;28;20262;-68
2023/06/06 11:01:05;;;;;;;7.70;5.03;;;13.00;99.90;;;;;;5072061;28;20181;-68
2023/06/06 11:03:38;;;;;;;10.67;4.80;;;13.10;99.90;;;;;;5071744;28;20228;-69
2023/06/06 11:06:11;;;;;;;10.97;5.40;;;13.00;99.90;;;;;;5072191;28;20175;-69
2023/06/06 11:08:53;;;;;;;8.10;4.43;;;13.00;99.90;;;;;;5071692;28;20192;-68
2023/06/06 11:11:28;;;;;;;9.87;5.40;;;12.90;99.90;;;;;;5072060;28;20241;-68
2023/06/06 11:14:03;;;;;;;7.30;5.07;;;12.90;99.90;;;;;;5072271;28;20171;-69
2023/06/06 11:16:40;;;;;;;11.50;5.73;;;12.90;99.90;;;;;;5071883;28;20311;-69
2023/06/06 11:19:21;;;;;;;10.10;5.90;;;12.90;99.90;;;;;;5053989;28;20302;-68
2023/06/06 11:21:57;;;;;;;11.40;5.90;;;12.90;99.90;;;;;;5071816;28;20291;-69
2023/06/06 11:24:31;;;;;;;8.90;5.33;;;12.90;99.90;;;;;;5071483;28;20624;-69
2023/06/06 11:26:59;;;;;;;9.23;5.70;;;12.90;99.90;;;;;;5071831;28;20207;-69
2023/06/06 11:29:27;;;;;;;10.57;5.73;;;12.90;99.90;;;;;;5053439;28;20179;-68
2023/06/06 11:31:55;;;;;;;9.87;5.50;;;12.80;99.90;;;;;;5061760;28;20238;-69
2023/06/06 11:34:23;;;;;;;9.10;6.50;;;12.80;99.90;;;;;;5051462;28;20288;-68
2023/06/06 11:36:52;;;;;;;9.37;6.03;;;12.80;99.90;;;;;;5051079;28;20195;-69
2023/06/06 11:39:21;;;;;;;8.53;6.30;;;12.70;99.90;;;;;;5051232;28;20184;-68
2023/06/06 11:41:50;;;;;;;11.63;6.90;;;12.80;99.90;;;;;;5020594;28;20192;-68
2023/06/06 11:44:18;;;;;;;10.93;6.97;;;12.90;99.90;;;;;;5043631;28;20676;-67
2023/06/06 11:46:48;;;;;;;12.17;7.17;;;12.90;99.90;;;;;;5055371;28;20249;-68
2023/06/06 11:49:16;;;;;;;10.00;6.13;;;13.00;99.90;;;;;;5055040;28;20357;-68
2023/06/06 11:51:58;;;;;;;13.23;6.73;;;13.00;99.90;;;;;;5055628;28;20637;-69
2023/06/06 11:54:27;;;;;;;9.60;6.37;;;13.10;99.90;;;;;;5055049;28;20194;-69
2023/06/06 11:56:59;;;;;;;12.23;6.57;;;13.10;99.90;;;;;;5054808;28;20183;-69
2023/06/06 11:59:27;;;;;;;11.70;6.90;;;13.10;99.90;;;;;;5054891;28;20188;-69
2023/06/06 12:01:56;;;;;;;13.27;7.17;;;13.10;99.90;;;;;;5036891;28;20285;-68
2023/06/06 12:04:31;;;;;;;9.33;6.87;;;13.10;99.90;;;;;;5037289;28;20657;-68
2023/06/06 12:07:05;;;;;;;9.07;6.53;;;13.10;99.90;;;;;;5055032;28;20263;-67
2023/06/06 12:09:33;;;;;;;11.23;6.93;;;13.20;99.90;;;;;;5055303;28;20322;-69
2023/06/06 12:12:04;;;;;;;12.23;7.23;;;13.20;99.90;;;;;;5054450;28;20196;-68
2023/06/06 12:14:33;;;;;;;11.90;7.37;;;13.30;99.90;;;;;;5036431;28;20683;-68
2023/06/06 12:17:10;;;;;;;17.33;8.03;;;13.30;99.90;;;;;;5054889;28;20226;-68
2023/06/06 12:19:38;;;;;;;11.43;8.00;;;13.40;99.90;;;;;;5055046;28;20195;-67
2023/06/06 12:22:06;;;;;;;14.60;8.20;;;13.40;99.90;;;;;;5054569;28;20181;-68
2023/06/06 12:24:35;;;;;;;13.90;8.27;;;13.40;99.90;;;;;;5054137;28;20671;-69
2023/06/06 12:27:06;;;;;;;12.40;8.07;;;13.50;99.90;;;;;;5054521;28;20931;-68
2023/06/06 12:29:36;;;;;;;12.53;7.87;;;13.60;99.90;;;;;;5054264;28;20220;-68
2023/06/06 12:32:29;;;;;;;14.03;7.83;;;13.60;99.90;;;;;;5054180;28;20181;-69
2023/06/06 12:35:05;;;;;;;14.07;7.30;;;13.60;99.90;;;;;;5054194;28;20187;-67
2023/06/06 12:37:43;;;;;;;13.97;7.70;;;13.60;99.90;;;;;;5054120;28;20252;-67
2023/06/06 12:40:23;;;;;;;17.43;8.33;;;13.60;99.90;;;;;;5054182;28;20200;-67
2023/06/06 12:42:57;;;;;;;16.47;8.80;;;13.60;99.90;;;;;;5053424;28;20211;-68
2023/06/06 12:45:27;;;;;;;12.70;7.57;;;13.60;99.90;;;;;;5036173;28;20227;-68
2023/06/06 12:47:56;;;;;;;16.43;8.93;;;13.60;99.90;;;;;;5053793;28;20222;-68
2023/06/06 12:50:25;;;;;;;14.23;8.40;;;13.70;99.90;;;;;;5054233;28;20181;-69
2023/06/06 12:52:53;;;;;;;17.67;10.37;;;13.70;99.90;;;;;;5052934;28;20636;-69
2023/06/06 12:55:22;;;;;;;15.73;9.63;;;13.70;99.90;;;;;;5054273;28;20263;-68
2023/06/06 12:57:49;;;;;;;18.40;11.07;;;13.80;99.90;;;;;;5053937;28;20188;-69
2023/06/06 13:00:19;;;;;;;15.70;10.17;;;13.80;99.90;;;;;;5053696;28;20176;-69
2023/06/06 13:02:47;;;;;;;18.00;11.20;;;13.90;99.90;;;;;;5053776;28;20275;-68
2023/06/06 13:05:15;;;;;;;16.13;10.53;;;13.90;99.90;;;;;;5053830;28;20185;-67